Time;durP1;ratioP1;P1;durP2;ratioP2;P2;SDS_P1;SDS_P2;PMS_P1;PMS_P2;Temp;Humidity;BMP_temperature;BMP_pressure;BME280_temperature;BME280_humidity;BME280_pressure;Samples;Min_cycle;Max_cycle;Signal;HPM_P1;HPM_P2
2021/07/31 00:00:07;;;;;;;;;;;16.10;91.80;;;19.67;75.58;100394.47;4404598;39;97621;-79
2021/07/31 00:03:15;;;;;;;;;;;16.10;91.70;;;19.56;76.14;100386.16;4403197;39;97025;-79
2021/07/31 00:06:23;;;;;;;;;;;16.10;91.70;;;19.41;76.00;100384.44;4399670;39;99423;-78
2021/07/31 00:09:27;;;;;;;;;;;16.10;91.70;;;19.56;75.97;100388.88;4405418;39;97683;-79
2021/07/31 00:12:43;;;;;;;;;;;16.00;91.80;;;19.60;76.15;100384.28;4391174;39;100387;-79
2021/07/31 00:15:47;;;;;;;;;;;16.00;91.80;;;19.69;75.25;100382.06;4399649;39;98413;-79
2021/07/31 00:18:51;;;;;;;;;;;16.10;91.90;;;19.79;75.92;100378.69;4402268;39;98629;-78
2021/07/31 00:21:57;;;;;;;;;;;16.10;91.90;;;19.89;75.38;100383.44;4400037;39;97791;-79
2021/07/31 00:25:01;;;;;;;;;;;16.10;91.80;;;19.91;75.30;100380.38;4405660;39;99272;-78
2021/07/31 00:28:07;;;;;;;;;;;16.20;91.90;;;19.91;75.32;100378.41;4403619;39;97810;-78
2021/07/31 00:31:13;;;;;;;;;;;16.20;91.90;;;19.88;75.84;100368.28;4405119;39;97481;-79
2021/07/31 00:34:17;;;;;;;;;;;16.20;91.80;;;19.96;75.25;100372.66;4404136;39;97530;-77
2021/07/31 00:37:21;;;;;;;;;;;16.20;91.80;;;19.97;75.14;100371.53;4403505;39;97508;-79
2021/07/31 00:40:24;;;;;;;;;;;16.30;91.80;;;19.95;75.72;100373.03;4405224;39;97740;-79
2021/07/31 00:43:29;;;;;;;;;;;16.30;91.80;;;19.96;75.41;100369.16;4404261;39;99466;-79
2021/07/31 00:46:33;;;;;;;;;;;16.30;91.80;;;19.86;75.66;100369.84;4405919;39;97417;-79
2021/07/31 00:49:38;;;;;;;;;;;16.30;91.80;;;19.92;75.59;100377.28;4398119;39;100003;-79
2021/07/31 00:52:42;;;;;;;;;;;16.30;91.80;;;19.93;76.05;100367.19;4394516;39;96821;-79
2021/07/31 00:55:47;;;;;;;;;;;16.30;91.80;;;19.87;76.11;100364.00;4396589;39;99512;-79
2021/07/31 00:58:52;;;;;;;;;;;16.30;91.80;;;19.79;76.56;100351.50;4406085;39;96680;-79
2021/07/31 01:01:57;;;;;;;;;;;16.30;91.80;;;19.66;76.64;100352.13;4399423;39;99557;-80
2021/07/31 01:05:01;;;;;;;;;;;16.30;91.70;;;19.67;76.65;100351.75;4409206;39;99461;-79
2021/07/31 01:08:08;;;;;;;;;;;16.30;91.80;;;19.70;77.12;100350.22;4406738;39;96803;-79
2021/07/31 01:11:12;;;;;;;;;;;16.20;91.80;;;19.73;76.39;100346.75;4398181;39;97528;-79
2021/07/31 01:14:17;;;;;;;;;;;16.30;91.80;;;19.74;76.62;100353.75;4403073;39;98861;-79
2021/07/31 01:17:22;;;;;;;;;;;16.30;91.90;;;19.76;75.97;100343.28;4404406;39;98589;-79
2021/07/31 01:20:26;;;;;;;;;;;16.30;91.80;;;19.85;76.44;100343.78;4405252;39;96624;-79
2021/07/31 01:23:38;;;;;;;;;;;16.30;91.80;;;19.89;75.88;100348.09;4407640;39;98143;-80
2021/07/31 01:26:45;;;;;;;;;;;16.30;91.80;;;20.02;75.38;100344.00;4398570;39;97680;-79
2021/07/31 01:29:49;;;;;;;;;;;16.40;91.90;;;19.95;76.04;100333.00;4412176;39;98800;-79
2021/07/31 01:32:53;;;;;;;;;;;16.30;91.80;;;19.95;75.78;100335.72;4399315;39;97874;-79
2021/07/31 01:35:58;;;;;;;;;;;16.30;91.80;;;19.89;76.00;100333.75;4399265;39;100199;-78
2021/07/31 01:39:14;;;;;;;;;;;16.40;91.80;;;19.92;75.71;100322.88;4398952;39;98545;-80
2021/07/31 01:42:18;;;;;;;;;;;16.30;91.80;;;19.95;75.69;100326.81;4403040;39;97524;-79
2021/07/31 01:45:22;;;;;;;;;;;16.30;91.90;;;19.92;75.77;100322.13;4395154;39;96778;-79
2021/07/31 01:48:26;;;;;;;;;;;16.30;91.90;;;19.81;76.26;100316.56;4399389;39;97591;-79
2021/07/31 01:51:31;;;;;;;;;;;16.30;91.90;;;19.75;77.08;100318.06;4404505;39;96777;-79
2021/07/31 01:54:37;;;;;;;;;;;16.30;91.90;;;19.72;76.66;100315.28;4406243;39;98607;-79
2021/07/31 01:57:41;;;;;;;;;;;16.30;91.80;;;19.71;77.32;100321.88;4404377;39;97774;-80
2021/07/31 02:01:05;;;;;;;;;;;16.30;91.90;;;19.75;76.11;100307.19;4406546;39;97878;-79
2021/07/31 02:04:11;;;;;;;;;;;16.40;91.90;;;19.80;76.75;100314.19;4402900;39;97522;-79
2021/07/31 02:07:35;;;;;;;;;;;16.30;91.90;;;19.90;76.06;100306.16;4401549;39;98183;-79
2021/07/31 02:10:42;;;;;;;;;;;16.30;91.90;;;19.86;75.80;100305.34;4403614;39;98474;-80
2021/07/31 02:13:46;;;;;;;;;;;16.30;91.90;;;19.87;76.22;100301.47;4405101;39;96639;-80
2021/07/31 02:16:54;;;;;;;;;;;16.30;91.90;;;19.88;76.74;100302.25;4399299;39;96822;-80
2021/07/31 02:19:58;;;;;;;;;;;16.30;91.90;;;19.87;76.19;100309.63;4404717;39;98485;-80
2021/07/31 02:23:24;;;;;;;;;;;16.30;91.90;;;19.83;76.63;100297.16;4412818;39;98710;-80
2021/07/31 02:26:48;;;;;;;;;;;16.30;91.90;;;19.88;76.35;100294.09;4402512;39;97190;-79
2021/07/31 02:29:57;;;;;;;;;;;16.30;91.90;;;19.85;76.46;100305.72;4394574;39;97474;-78
2021/07/31 02:33:03;;;;;;;;;;;16.30;91.90;;;19.86;75.94;100304.56;4401581;39;97710;-79
2021/07/31 02:36:08;;;;;;;;;;;16.30;92.00;;;19.86;76.53;100299.91;4409223;39;96984;-79
2021/07/31 02:39:17;;;;;;;;;;;16.30;92.00;;;19.87;76.64;100295.25;4394473;39;97615;-79
2021/07/31 02:42:22;;;;;;;;;;;16.30;92.00;;;19.83;76.42;100302.59;4396969;39;98556;-79
2021/07/31 02:45:40;;;;;;;;;;;16.40;92.00;;;19.91;76.00;100304.22;4421300;39;96867;-79
2021/07/31 02:48:44;;;;;;;;;;;16.30;92.00;;;19.90;76.67;100299.94;4391505;39;97620;-79
2021/07/31 02:51:48;;;;;;;;;;;16.30;92.00;;;19.91;76.04;100290.63;4390223;39;96608;-80
2021/07/31 02:55:07;;;;;;;;;;;16.30;92.00;;;19.88;75.60;100305.75;4405161;39;97749;-80
2021/07/31 02:58:11;;;;;;;;;;;16.30;92.00;;;19.86;75.64;100297.19;4399850;39;99271;-80
2021/07/31 03:01:16;;;;;;;;;;;16.30;92.00;;;19.80;76.37;100297.88;4384795;39;97901;-80
2021/07/31 03:04:20;;;;;;;;;;;16.30;92.00;;;19.77;76.43;100299.44;4389569;39;97639;-80
2021/07/31 03:07:28;;;;;;;;;;;16.20;92.00;;;19.72;75.82;100288.91;4395330;39;97757;-80
2021/07/31 03:10:35;;;;;;;;;;;16.20;92.00;;;19.72;76.48;100288.09;4396581;39;97460;-80
2021/07/31 03:13:40;;;;;;;;;;;16.20;92.10;;;19.69;76.62;100289.66;4389713;39;98999;-80
2021/07/31 03:16:45;;;;;;;;;;;16.20;92.10;;;19.60;76.61;100277.50;4399460;39;99366;-80
2021/07/31 03:19:50;;;;;;;;;;;16.20;92.10;;;19.64;76.81;100283.75;4390057;39;98612;-80
2021/07/31 03:22:58;;;;;;;;;;;16.20;92.10;;;19.59;76.44;100295.72;4383842;39;99756;-80
2021/07/31 03:26:04;;;;;;;;;;;16.10;92.10;;;19.61;76.64;100276.34;4381613;39;97541;-79
2021/07/31 03:29:08;;;;;;;;;;;16.10;92.20;;;19.57;76.73;100278.25;4396735;39;97449;-80
2021/07/31 03:32:14;;;;;;;;;;;16.10;92.20;;;19.54;76.85;100277.03;4384652;39;99143;-79
2021/07/31 03:35:18;;;;;;;;;;;16.10;92.20;;;19.58;76.29;100266.97;4391006;39;97603;-79
2021/07/31 03:38:42;;;;;;;;;;;16.00;92.20;;;19.53;75.98;100272.00;4383554;39;99620;-79
2021/07/31 03:41:45;;;;;;;;;;;16.00;92.10;;;19.46;76.89;100274.63;4392491;39;97443;-79
2021/07/31 03:44:50;;;;;;;;;;;16.00;92.10;;;19.49;76.61;100274.66;4392415;39;96754;-81
2021/07/31 03:47:55;;;;;;;;;;;16.00;92.20;;;19.52;76.70;100265.75;4393119;39;98574;-80
2021/07/31 03:50:59;;;;;;;;;;;16.00;92.20;;;19.52;76.37;100270.44;4384198;39;98478;-79
2021/07/31 03:54:10;;;;;;;;;;;15.90;92.20;;;19.54;76.15;100266.16;4374966;39;98606;-80
2021/07/31 03:57:14;;;;;;;;;;;16.00;92.30;;;19.64;76.31;100267.44;4376792;39;98589;-79
2021/07/31 04:00:23;;;;;;;;;;;16.00;92.30;;;19.69;76.03;100265.19;4381556;39;96976;-80
2021/07/31 04:03:34;;;;;;;;;;;16.00;92.20;;;19.76;75.88;100259.00;4374527;39;98587;-79
2021/07/31 04:06:38;;;;;;;;;;;16.00;92.20;;;19.81;75.62;100267.63;4383557;39;96721;-79
2021/07/31 04:10:05;;;;;;;;;;;16.10;92.30;;;19.88;75.21;100266.91;4379401;39;97551;-79
2021/07/31 04:13:18;;;;;;;;;;;16.10;92.20;;;19.79;75.31;100271.84;4382583;39;97599;-78
2021/07/31 04:16:34;;;;;;;;;;;16.20;92.20;;;19.39;76.67;100269.09;4380958;39;97697;-78
2021/07/31 04:19:40;;;;;;;;;;;16.00;92.10;;;19.17;77.09;100275.44;4378887;39;96910;-78
2021/07/31 04:22:44;;;;;;;;;;;15.90;92.00;;;19.07;77.05;100270.63;4367480;39;97630;-78
2021/07/31 04:25:49;;;;;;;;;;;15.90;92.10;;;19.05;77.17;100273.69;4370324;39;97755;-78
2021/07/31 04:28:52;;;;;;;;;;;15.80;92.20;;;19.03;76.96;100281.44;4373775;39;96686;-78
2021/07/31 04:31:56;;;;;;;;;;;15.70;92.20;;;18.97;76.82;100277.47;4372910;39;96894;-78
2021/07/31 04:35:05;;;;;;;;;;;15.60;92.30;;;18.92;76.94;100280.53;4372667;39;96799;-78
2021/07/31 04:38:08;;;;;;;;;;;15.60;92.30;;;18.91;77.00;100272.72;4382384;39;97617;-77
2021/07/31 04:41:13;;;;;;;;;;;15.50;92.40;;;18.81;77.28;100273.38;4380900;39;97622;-77
2021/07/31 04:44:16;;;;;;;;;;;15.50;92.40;;;18.76;77.03;100292.69;4385004;39;96933;-77
2021/07/31 04:47:20;;;;;;;;;;;15.40;92.40;;;18.80;77.23;100290.06;4372091;39;96748;-77
2021/07/31 04:50:25;;;;;;;;;;;15.40;92.50;;;18.73;76.98;100296.16;4357807;39;97557;-78
2021/07/31 04:53:29;;;;;;;;;;;15.40;92.80;;;18.88;76.80;100294.41;4373072;39;97968;-78
2021/07/31 04:56:33;;;;;;;;;;;15.40;92.50;;;18.96;76.33;100294.16;4370935;39;98687;-79
2021/07/31 04:59:37;;;;;;;;;;;15.40;92.50;;;19.00;76.30;100300.41;4379599;39;97789;-79
2021/07/31 05:02:41;;;;;;;;;;;15.50;92.50;;;19.14;75.89;100297.88;4381975;39;97174;-79
2021/07/31 05:05:47;;;;;;;;;;;15.50;92.50;;;19.10;75.86;100305.19;4364242;39;97468;-79
2021/07/31 05:08:51;;;;;;;;;;;15.60;92.40;;;18.98;76.25;100302.72;4377992;39;98008;-79
2021/07/31 05:11:55;;;;;;;;;;;15.50;92.30;;;18.97;76.12;100315.50;4379408;39;97850;-80
2021/07/31 05:14:59;;;;;;;;;;;15.50;92.40;;;18.94;76.43;100323.59;4385244;39;98428;-78
2021/07/31 05:18:06;;;;;;;;;;;15.50;92.40;;;18.94;76.78;100320.91;4386933;39;98782;-79
2021/07/31 05:21:12;;;;;;;;;;;15.50;92.50;;;18.98;76.28;100319.00;4380111;39;97965;-79
2021/07/31 05:24:16;;;;;;;;;;;15.40;92.40;;;18.99;76.18;100328.72;4382492;39;97044;-78
2021/07/31 05:27:19;;;;;;;;;;;15.40;92.40;;;19.14;75.81;100325.03;4378131;39;96853;-79
2021/07/31 05:30:23;;;;;;;;;;;15.50;92.50;;;19.21;76.12;100330.56;4370375;39;96605;-79
2021/07/31 05:33:27;;;;;;;;;;;15.50;92.40;;;19.17;75.99;100333.25;4362388;39;98008;-79
2021/07/31 05:36:37;;;;;;;;;;;15.60;92.40;;;19.31;75.48;100335.38;4378035;39;97509;-79
2021/07/31 05:39:40;;;;;;;;;;;15.60;92.40;;;19.43;75.25;100340.56;4366305;39;96804;-79
2021/07/31 05:42:44;;;;;;;;;;;15.70;92.40;;;19.47;75.54;100331.31;4374796;39;96672;-79
2021/07/31 05:45:49;;;;;;;;;;;15.70;92.30;;;19.58;75.12;100334.16;4379843;39;96730;-79
2021/07/31 05:48:53;;;;;;;;;;;15.80;92.50;;;19.76;74.77;100343.28;4380537;39;98478;-79
2021/07/31 05:51:58;;;;;;;;;;;16.00;92.20;;;19.91;74.63;100345.78;4381345;39;97818;-79
2021/07/31 05:55:07;;;;;;;;;;;16.10;92.10;;;20.05;74.38;100337.81;4374849;39;97518;-79
2021/07/31 05:58:11;;;;;;;;;;;16.20;92.00;;;20.25;73.61;100344.59;4373903;39;97606;-79
2021/07/31 06:01:15;;;;;;;;;;;16.30;91.90;;;20.39;73.61;100333.06;4374801;39;97488;-78
2021/07/31 06:04:19;;;;;;;;;;;16.40;91.80;;;20.39;74.68;100341.22;4373651;39;98399;-79
2021/07/31 06:07:24;;;;;;;;;;;16.50;91.80;;;20.16;74.72;100338.69;4380915;39;98374;-79
2021/07/31 06:10:28;;;;;;;;;;;16.50;91.70;;;20.30;73.97;100338.84;4382098;39;97649;-78
2021/07/31 06:13:32;;;;;;;;;;;16.50;91.80;;;20.08;74.74;100336.28;4378932;39;98079;-79
2021/07/31 06:16:35;;;;;;;;;;;16.50;91.70;;;19.99;75.70;100354.81;4362808;39;97520;-78
2021/07/31 06:19:40;;;;;;;;;;;16.50;91.80;;;20.08;75.67;100358.84;4377174;39;96660;-77
2021/07/31 06:22:45;;;;;;;;;;;16.50;91.80;;;20.11;75.36;100354.56;4386144;39;98463;-78
2021/07/31 06:25:49;;;;;;;;;;;16.60;91.80;;;19.98;75.78;100358.69;4377754;39;96741;-78
2021/07/31 06:28:52;;;;;;;;;;;16.60;91.70;;;19.91;76.06;100364.06;4378339;39;98699;-77
2021/07/31 06:31:56;;;;;;;;;;;16.60;91.80;;;20.09;75.32;100352.22;4362695;39;97550;-77
2021/07/31 06:35:00;;;;;;;;;;;16.60;91.90;;;20.11;75.23;100360.00;4369483;39;99342;-78
2021/07/31 06:38:07;;;;;;;;;;;16.60;91.80;;;19.99;75.83;100365.69;4369651;39;98550;-78
2021/07/31 06:41:11;;;;;;;;;;;16.50;91.80;;;19.94;75.69;100369.50;4378555;39;98430;-78
2021/07/31 06:44:15;;;;;;;;;;;16.50;91.90;;;19.95;75.54;100367.59;4385604;39;97527;-78
2021/07/31 06:47:18;;;;;;;;;;;16.50;91.90;;;19.81;76.07;100364.69;4378041;39;98595;-78
2021/07/31 06:50:22;;;;;;;;;;;16.40;91.90;;;19.96;75.58;100367.19;4380775;39;97133;-79
2021/07/31 06:53:27;;;;;;;;;;;16.40;92.10;;;20.46;74.34;100379.41;4377152;39;97530;-78
2021/07/31 06:56:34;;;;;;;;;;;16.50;92.10;;;20.66;73.83;100376.84;4369785;39;96805;-78
2021/07/31 06:59:39;;;;;;;;;;;16.70;91.80;;;20.45;75.00;100380.56;4378213;39;96851;-77
2021/07/31 07:02:43;;;;;;;;;;;16.80;91.80;;;20.12;74.70;100386.09;4379045;39;97555;-78
2021/07/31 07:05:47;;;;;;;;;;;16.60;91.80;;;19.93;75.92;100373.38;4377240;39;97573;-76
2021/07/31 07:08:52;;;;;;;;;;;16.50;91.80;;;19.76;76.06;100384.88;4361976;39;97591;-76
2021/07/31 07:11:56;;;;;;;;;;;16.40;91.90;;;19.71;76.06;100381.69;4377220;39;97735;-76
2021/07/31 07:15:00;;;;;;;;;;;16.30;92.00;;;19.69;75.48;100384.78;4370443;39;97488;-74
2021/07/31 07:18:06;;;;;;;;;;;16.30;92.00;;;19.67;76.09;100376.22;4370343;39;98851;-74
2021/07/31 07:21:12;;;;;;;;;;;16.20;92.10;;;19.78;76.18;100384.47;4370798;39;97459;-74
2021/07/31 07:24:16;;;;;;;;;;;16.30;92.20;;;19.77;74.87;100382.91;4379559;39;96810;-75
2021/07/31 07:27:20;;;;;;;;;;;16.20;92.00;;;19.82;74.97;100382.63;4376887;39;97800;-76
2021/07/31 07:30:24;;;;;;;;;;;16.20;92.10;;;19.93;74.98;100394.38;4355331;39;97549;-76
2021/07/31 07:33:28;;;;;;;;;;;16.30;92.10;;;19.76;75.80;100400.38;4375161;39;97839;-77
2021/07/31 07:36:31;;;;;;;;;;;16.20;92.00;;;19.74;75.67;100400.78;4368470;39;96942;-77
2021/07/31 07:39:36;;;;;;;;;;;16.20;92.10;;;19.64;76.26;100395.19;4374071;39;97596;-78
2021/07/31 07:42:40;;;;;;;;;;;16.20;92.10;;;19.62;75.85;100400.22;4368992;39;99391;-77
2021/07/31 07:45:45;;;;;;;;;;;16.20;92.20;;;19.66;75.80;100407.25;4378906;39;97661;-77
2021/07/31 07:48:49;;;;;;;;;;;16.10;92.30;;;19.77;75.52;100413.63;4356324;39;98765;-76
2021/07/31 07:51:53;;;;;;;;;;;16.10;92.40;;;19.73;75.93;100414.72;4375133;39;98051;-76
2021/07/31 07:54:58;;;;;;;;;;;16.20;92.40;;;19.90;75.20;100414.16;4368413;39;97815;-76
2021/07/31 07:58:09;;;;;;;;;;;16.20;92.50;;;20.26;75.08;100424.31;4384881;39;96770;-76
2021/07/31 08:01:12;;;;;;;;;;;16.30;92.50;;;20.58;73.71;100431.63;4377330;39;97432;-77
2021/07/31 08:04:17;;;;;;;;;;;16.50;92.40;;;20.45;74.50;100438.50;4370262;39;96778;-77
2021/07/31 08:07:21;;;;;;;;;;;16.50;92.30;;;20.45;74.92;100429.56;4379768;39;96954;-77
2021/07/31 08:10:26;;;;;;;;;;;16.60;92.40;;;20.37;75.79;100436.06;4368742;39;97789;-78
2021/07/31 08:13:29;;;;;;;;;;;16.60;92.40;;;20.34;75.71;100443.06;4379269;39;98480;-77
2021/07/31 08:16:33;;;;;;;;;;;16.60;92.50;;;20.37;75.90;100452.41;4381180;39;97505;-77
2021/07/31 08:19:37;;;;;;;;;;;16.60;92.50;;;20.73;75.36;100458.63;4377779;39;98008;-78
2021/07/31 08:22:41;;;;;;;;;;;16.80;92.50;;;20.73;76.22;100452.38;4378416;39;97606;-78
2021/07/31 08:25:47;;;;;;;;;;;16.90;92.30;;;20.46;76.28;100472.72;4363765;39;96718;-78
2021/07/31 08:28:51;;;;;;;;;;;16.80;92.30;;;20.41;76.44;100464.91;4382311;39;97491;-78
2021/07/31 08:31:55;;;;;;;;;;;16.80;92.50;;;20.44;76.70;100466.09;4377963;39;97606;-77
2021/07/31 08:35:00;;;;;;;;;;;16.80;92.50;;;20.85;75.92;100461.06;4370804;39;96642;-78
2021/07/31 08:38:05;;;;;;;;;;;16.90;92.60;;;21.17;75.40;100472.22;4369216;39;99457;-78
2021/07/31 08:41:10;;;;;;;;;;;17.10;92.50;;;21.20;75.10;100479.66;4368457;39;97994;-79
2021/07/31 08:44:14;;;;;;;;;;;17.20;92.30;;;21.15;75.48;100471.81;4380486;39;97480;-78
2021/07/31 08:47:18;;;;;;;;;;;17.30;92.40;;;21.07;76.18;100471.00;4369045;39;96678;-78
2021/07/31 08:50:25;;;;;;;;;;;17.30;92.40;;;21.11;76.17;100474.53;4382382;39;98491;-78
2021/07/31 08:53:30;;;;;;;;;;;17.30;92.50;;;21.53;75.33;100472.06;4383569;39;97453;-78
2021/07/31 08:56:35;;;;;;;;;;;17.40;92.50;;;21.55;75.46;100483.38;4379426;39;98860;-79
2021/07/31 08:59:39;;;;;;;;;;;17.60;92.40;;;21.52;75.90;100486.88;4374020;39;97987;-79
2021/07/31 09:02:44;;;;;;;;;;;17.60;92.50;;;21.62;75.99;100480.75;4382669;39;98561;-78
2021/07/31 09:05:49;;;;;;;;;;;17.70;92.70;;;21.54;76.24;100489.22;4382664;39;97937;-78
2021/07/31 09:08:53;;;;;;;;;;;17.70;92.50;;;21.56;76.39;100490.41;4387167;39;98499;-78
2021/07/31 09:12:04;;;;;;;;;;;17.70;92.60;;;21.56;76.73;100503.25;4382443;39;98881;-78
2021/07/31 09:15:08;;;;;;;;;;;17.70;92.60;;;21.49;76.15;100506.72;4379606;39;97482;-78
2021/07/31 09:18:24;;;;;;;;;;;17.70;92.60;;;21.75;75.96;100497.53;4381149;39;96684;-78
2021/07/31 09:21:31;;;;;;;;;;;17.80;92.70;;;21.96;76.08;100493.00;4380373;39;97613;-79
2021/07/31 09:24:36;;;;;;;;;;;17.90;92.60;;;22.26;74.99;100498.97;4379365;39;97627;-79
2021/07/31 09:27:41;;;;;;;;;;;18.10;92.40;;;22.79;73.87;100510.81;4379895;39;97813;-79
2021/07/31 09:30:51;;;;;;;;;;;18.40;92.30;;;23.32;72.79;100509.69;4379074;39;99387;-80
2021/07/31 09:33:57;;;;;;;;;;;18.70;91.90;;;22.76;74.39;100512.38;4379930;39;97800;-79
2021/07/31 09:37:11;;;;;;;;;;;18.80;91.70;;;22.29;75.87;100515.34;4369905;39;98809;-78
2021/07/31 09:40:14;;;;;;;;;;;18.60;92.00;;;22.23;76.01;100520.78;4373983;39;98623;-79
2021/07/31 09:43:20;;;;;;;;;;;18.50;92.40;;;22.28;76.29;100515.72;4381601;39;97586;-78
2021/07/31 09:46:33;;;;;;;;;;;18.50;92.80;;;22.69;75.36;100506.91;4372860;39;97521;-77
2021/07/31 09:49:41;;;;;;;;;;;18.50;92.50;;;22.93;74.70;100513.56;4380192;39;97544;-78
2021/07/31 09:52:44;;;;;;;;;;;18.80;92.20;;;22.87;74.79;100523.31;4373271;39;96794;-77
2021/07/31 09:55:50;;;;;;;;;;;18.90;92.10;;;22.61;75.30;100518.19;4372748;39;96657;-78
2021/07/31 09:58:59;;;;;;;;;;;18.80;92.00;;;22.17;76.11;100516.84;4370763;39;99170;-78
2021/07/31 10:02:07;;;;;;;;;;;18.60;92.20;;;21.85;76.65;100535.03;4379362;39;97562;-78
2021/07/31 10:05:11;;;;;;;;;;;18.40;92.40;;;21.67;77.17;100528.66;4375958;39;97008;-76
2021/07/31 10:08:15;;;;;;;;;;;18.20;92.70;;;21.62;77.39;100529.81;4381660;39;97475;-77
2021/07/31 10:11:19;;;;;;;;;;;18.10;92.80;;;21.70;77.04;100530.63;4378681;39;97370;-77
2021/07/31 10:14:25;;;;;;;;;;;18.00;92.80;;;21.86;76.79;100520.22;4377620;39;97463;-76
2021/07/31 10:17:31;;;;;;;;;;;18.00;92.90;;;21.70;76.73;100525.97;4375685;39;98002;-77
2021/07/31 10:20:36;;;;;;;;;;;18.00;92.80;;;21.41;77.17;100521.47;4377310;39;97031;-76
2021/07/31 10:24:09;;;;;;;;;;;17.90;92.80;;;21.21;78.49;100525.59;4376947;39;96603;-76
2021/07/31 10:27:22;;;;;;;;;;;17.70;93.00;;;21.35;77.54;100533.88;4378466;39;97485;-76
2021/07/31 10:30:31;;;;;;;;;;;17.60;93.20;;;21.60;76.43;100529.38;4380924;39;96717;-77
2021/07/31 10:33:45;;;;;;;;;;;17.70;93.00;;;21.99;75.56;100538.59;4379335;39;96831;-77
2021/07/31 10:36:51;;;;;;;;;;;17.90;93.10;;;21.79;76.44;100556.41;4374230;39;98408;-77
2021/07/31 10:39:58;;;;;;;;;;;17.90;92.90;;;22.67;75.22;100558.41;4378776;39;97699;-76
2021/07/31 10:43:05;;;;;;;;;;;18.10;93.00;;;23.32;73.31;100550.72;4380579;39;97503;-77
2021/07/31 10:46:24;;;;;;;;;;;18.50;92.90;;;24.05;71.22;100547.88;4370784;39;97996;-77
2021/07/31 10:49:36;;;;;;;;;;;18.90;92.80;;;24.88;69.62;100551.41;4377814;39;97753;-77
2021/07/31 10:52:54;;;;;;;;;;;19.50;92.50;;;25.85;68.12;100541.59;4369872;39;97096;-77
2021/07/31 10:56:04;;;;;;;;;;;20.20;92.00;;;26.83;66.17;100540.38;4372023;39;98179;-79
2021/07/31 10:59:19;;;;;;;;;;;21.00;91.30;;;26.73;67.37;100540.53;4370829;39;96626;-78
2021/07/31 11:02:37;;;;;;;;;;;21.50;90.50;;;26.03;70.33;100549.66;4372523;39;97483;-78
2021/07/31 11:06:04;;;;;;;;;;;21.60;90.10;;;25.98;70.90;100561.88;4380172;39;98557;-77
2021/07/31 11:09:13;;;;;;;;;;;21.50;90.40;;;26.90;68.12;100567.00;4366688;39;96914;-78
2021/07/31 11:12:44;;;;;;;;;;;21.80;90.30;;;27.98;65.18;100563.22;4381583;39;100022;-78
2021/07/31 11:16:17;;;;;;;;;;;22.40;90.00;;;27.70;66.69;100573.97;4369029;39;98757;-78
2021/07/31 11:19:33;;;;;;;;;;;22.80;88.40;;;28.21;65.53;100574.16;4387316;39;97431;-79
2021/07/31 11:22:39;;;;;;;;;;;23.00;88.20;;;28.56;65.09;100567.97;4380381;39;97657;-79
2021/07/31 11:25:43;;;;;;;;;;;23.30;88.00;;;29.07;64.39;100578.25;4370343;39;96640;-77
2021/07/31 11:28:47;;;;;;;;;;;23.70;87.80;;;29.43;64.72;100576.22;4370127;39;97215;-79
2021/07/31 11:32:00;;;;;;;;;;;24.00;87.70;;;29.78;63.85;100576.09;4369394;39;97577;-78
2021/07/31 11:35:07;;;;;;;;;;;24.40;87.10;;;29.85;64.67;100592.47;4368107;39;98173;-78
2021/07/31 11:38:42;;;;;;;;;;;24.60;86.70;;;30.05;64.67;100586.88;4373284;39;96757;-77
2021/07/31 11:41:46;;;;;;;;;;;24.80;86.80;;;29.57;66.46;100581.41;4345663;39;97218;-77
2021/07/31 11:44:50;;;;;;;;;;;24.80;86.90;;;28.42;70.16;100584.03;4359216;39;96761;-77
2021/07/31 11:47:57;;;;;;;;;;;24.50;87.70;;;27.81;71.55;100586.38;4370243;39;99037;-78
2021/07/31 11:51:03;;;;;;;;;;;24.00;89.20;;;28.25;70.44;100588.69;4376047;39;97657;-76
2021/07/31 11:54:08;;;;;;;;;;;23.90;90.00;;;28.57;69.57;100580.56;4369934;39;97566;-76
2021/07/31 11:57:15;;;;;;;;;;;24.00;89.70;;;28.25;70.38;100582.38;4366718;39;97353;-75
2021/07/31 12:00:19;;;;;;;;;;;24.00;89.10;;;28.03;70.85;100586.75;4378524;39;96624;-76
2021/07/31 12:03:46;;;;;;;;;;;23.90;89.50;;;27.19;72.50;100579.16;4378024;39;98474;-75
2021/07/31 12:06:51;;;;;;;;;;;23.60;89.50;;;26.54;73.73;100588.69;4374379;39;97466;-74
2021/07/31 12:09:59;;;;;;;;;;;23.10;90.20;;;26.31;73.72;100598.75;4375013;39;98607;-74
2021/07/31 12:13:09;;;;;;;;;;;22.80;90.70;;;25.59;75.18;100601.84;4378754;39;99811;-74
2021/07/31 12:16:13;;;;;;;;;;;22.40;90.50;;;26.87;72.58;100620.06;4369506;39;96630;-75
2021/07/31 12:19:17;;;;;;;;;;;22.50;91.30;;;27.73;70.33;100615.25;4378022;39;97564;-75
2021/07/31 12:22:25;;;;;;;;;;;22.90;91.30;;;27.89;70.62;100615.31;4375540;39;97568;-74
2021/07/31 12:25:30;;;;;;;;;;;23.20;91.30;;;28.12;70.54;100615.31;4377608;39;98425;-75
2021/07/31 12:28:43;;;;;;;;;;;23.40;91.30;;;28.40;70.04;100620.28;4374342;39;97678;-75
2021/07/31 12:31:46;;;;;;;;;;;23.70;91.00;;;28.54;69.42;100614.50;4379654;39;96927;-75
2021/07/31 12:34:51;;;;;;;;;;;23.80;90.20;;;28.91;68.44;100611.38;4376188;39;97709;-76
2021/07/31 12:37:56;;;;;;;;;;;24.10;90.20;;;28.83;68.82;100611.91;4373177;39;97512;-76
2021/07/31 12:41:04;;;;;;;;;;;24.20;90.00;;;28.59;69.73;100621.47;4377964;39;97453;-75
2021/07/31 12:44:07;;;;;;;;;;;24.20;90.00;;;28.13;71.01;100621.59;4377227;39;97466;-75
2021/07/31 12:47:11;;;;;;;;;;;24.20;89.60;;;27.28;73.26;100616.72;4374239;39;97687;-76
2021/07/31 12:50:15;;;;;;;;;;;23.80;90.10;;;26.65;74.97;100619.59;4371553;39;97752;-76
2021/07/31 12:53:23;;;;;;;;;;;23.40;90.40;;;26.64;74.73;100636.47;4375595;39;97497;-75
2021/07/31 12:56:27;;;;;;;;;;;23.10;90.80;;;27.23;73.54;100630.19;4374185;39;97630;-74
2021/07/31 12:59:31;;;;;;;;;;;23.10;91.20;;;27.96;71.00;100634.50;4375518;39;98458;-77
2021/07/31 13:02:48;;;;;;;;;;;23.30;91.10;;;28.16;70.55;100634.53;4375533;39;97996;-76
2021/07/31 13:05:52;;;;;;;;;;;23.60;90.80;;;27.95;71.56;100632.94;4370448;39;97205;-77
2021/07/31 13:08:57;;;;;;;;;;;23.60;90.70;;;27.54;72.24;100639.94;4367750;39;97608;-77
2021/07/31 13:12:04;;;;;;;;;;;23.50;90.60;;;26.91;73.49;100651.06;4376505;39;96676;-76
2021/07/31 13:15:09;;;;;;;;;;;23.30;90.50;;;26.31;75.04;100654.50;4374708;39;98548;-75
2021/07/31 13:18:19;;;;;;;;;;;23.00;90.80;;;25.65;75.79;100663.34;4370982;39;97176;-75
2021/07/31 13:21:23;;;;;;;;;;;22.50;91.10;;;25.29;76.97;100664.00;4376669;39;98434;-75
2021/07/31 13:24:28;;;;;;;;;;;22.10;91.40;;;24.93;76.26;100666.16;4362091;39;97554;-78
2021/07/31 13:27:32;;;;;;;;;;;21.80;91.30;;;24.43;75.71;100669.41;4368384;39;97434;-77
2021/07/31 13:30:38;;;;;;;;;;;21.40;91.20;;;24.49;75.31;100668.63;4378031;39;97700;-76
2021/07/31 13:33:41;;;;;;;;;;;21.30;91.40;;;24.58;75.46;100669.00;4371393;39;97026;-76
2021/07/31 13:36:47;;;;;;;;;;;21.20;91.60;;;24.39;75.11;100683.16;4361312;39;98758;-76
2021/07/31 13:39:53;;;;;;;;;;;21.10;91.50;;;24.04;75.89;100694.16;4370411;39;97050;-77
2021/07/31 13:42:57;;;;;;;;;;;20.90;91.40;;;23.85;77.07;100698.47;4375391;39;98536;-77
2021/07/31 13:46:00;;;;;;;;;;;20.60;91.80;;;23.73;76.97;100701.56;4372201;39;97484;-77
2021/07/31 13:49:06;;;;;;;;;;;20.50;91.90;;;23.66;76.99;100710.53;4369227;39;97327;-77
2021/07/31 13:52:09;;;;;;;;;;;20.30;92.10;;;23.62;76.91;100711.69;4378230;39;97479;-77
2021/07/31 13:55:15;;;;;;;;;;;20.10;92.10;;;23.49;76.71;100714.03;4365028;39;97608;-77
2021/07/31 13:58:19;;;;;;;;;;;20.10;92.10;;;23.37;76.88;100708.94;4378270;39;97698;-76
2021/07/31 14:01:23;;;;;;;;;;;19.90;92.20;;;23.40;75.89;100715.56;4374676;39;97608;-77
2021/07/31 14:04:27;;;;;;;;;;;19.90;92.20;;;23.74;75.94;100714.84;4367369;39;97708;-77
2021/07/31 14:07:31;;;;;;;;;;;19.90;92.30;;;24.08;75.78;100719.56;4359416;39;98617;-77